Time;durP1;ratioP1;P1;durP2;ratioP2;P2;SDS_P1;SDS_P2;PMS_P1;PMS_P2;Temp;Humidity;BMP_temperature;BMP_pressure;BME280_temperature;BME280_humidity;BME280_pressure;Samples;Min_cycle;Max_cycle;Signal;HPM_P1;HPM_P2
2022/07/23 00:01:34;;;;;;;8.35;5.45;;;21.50;99.90;;;;;;5092646;28;20043;-66
2022/07/23 00:04:00;;;;;;;10.80;6.00;;;21.50;99.90;;;;;;5092623;28;20123;-65
2022/07/23 00:06:26;;;;;;;8.38;5.45;;;21.50;99.90;;;;;;5092574;28;20052;-66
2022/07/23 00:08:52;;;;;;;7.65;5.57;;;21.50;99.90;;;;;;5092604;28;20097;-65
2022/07/23 00:11:19;;;;;;;7.85;5.05;;;21.50;99.90;;;;;;5094183;28;20046;-66
2022/07/23 00:13:45;;;;;;;7.95;5.82;;;21.50;99.90;;;;;;5095691;28;20445;-66
2022/07/23 00:16:11;;;;;;;7.32;5.13;;;21.40;99.90;;;;;;5096584;28;20036;-65
2022/07/23 00:18:36;;;;;;;8.10;5.50;;;21.40;99.90;;;;;;5096303;28;20066;-65
2022/07/23 00:21:02;;;;;;;9.25;5.90;;;21.40;99.90;;;;;;5096216;28;20055;-66
2022/07/23 00:23:29;;;;;;;10.50;5.75;;;21.40;99.90;;;;;;5096114;28;20043;-66
2022/07/23 00:25:55;;;;;;;7.82;5.40;;;21.30;99.90;;;;;;5095814;28;20086;-66
2022/07/23 00:28:21;;;;;;;8.02;5.38;;;21.40;99.90;;;;;;5095808;28;20418;-66
2022/07/23 00:30:47;;;;;;;7.38;5.40;;;21.40;99.90;;;;;;5096038;28;20028;-66
2022/07/23 00:33:13;;;;;;;10.07;5.07;;;21.30;99.90;;;;;;5096136;28;20047;-66
2022/07/23 00:35:40;;;;;;;8.07;5.43;;;21.30;99.90;;;;;;5095993;28;20036;-66
2022/07/23 00:38:09;;;;;;;6.13;4.72;;;21.40;99.90;;;;;;5095941;28;20047;-65
2022/07/23 00:40:35;;;;;;;6.93;5.55;;;21.40;99.90;;;;;;5095628;28;20063;-66
2022/07/23 00:43:01;;;;;;;10.63;5.70;;;21.40;99.90;;;;;;5095600;28;20048;-66
2022/07/23 00:45:27;;;;;;;6.55;5.32;;;21.40;99.90;;;;;;5095522;28;20442;-66
2022/07/23 00:47:53;;;;;;;8.30;5.57;;;21.30;99.90;;;;;;5095565;28;20078;-66
2022/07/23 00:50:19;;;;;;;8.35;5.65;;;21.30;99.90;;;;;;5095614;28;20071;-66
2022/07/23 00:52:45;;;;;;;10.13;5.43;;;21.30;99.90;;;;;;5095671;28;20509;-65
2022/07/23 00:55:13;;;;;;;6.47;5.10;;;21.20;99.90;;;;;;5095569;28;20124;-66
2022/07/23 00:57:40;;;;;;;6.55;4.55;;;21.20;99.90;;;;;;5095514;28;20077;-66
2022/07/23 01:00:09;;;;;;;8.60;5.50;;;21.20;99.90;;;;;;5095354;28;20506;-66
2022/07/23 01:02:35;;;;;;;8.15;5.10;;;21.20;99.90;;;;;;5095441;28;20127;-66
2022/07/23 01:05:01;;;;;;;8.63;5.40;;;21.10;99.90;;;;;;5095313;28;20115;-66
2022/07/23 01:07:28;;;;;;;7.18;5.25;;;21.10;99.90;;;;;;5095095;28;20055;-66
2022/07/23 01:09:55;;;;;;;9.23;5.15;;;21.10;99.90;;;;;;5095064;28;20514;-66
2022/07/23 01:12:21;;;;;;;7.03;5.07;;;21.10;99.90;;;;;;5094985;28;20069;-66
2022/07/23 01:14:54;;;;;;;8.98;5.90;;;21.10;99.90;;;;;;5095058;28;20044;-66
2022/07/23 01:17:20;;;;;;;8.45;5.07;;;21.00;99.90;;;;;;5095321;28;20410;-66
2022/07/23 01:19:46;;;;;;;7.00;4.85;;;;;;;;;;5095225;28;20036;-66
2022/07/23 01:22:13;;;;;;;7.40;4.50;;;21.10;99.90;;;;;;5094607;28;20449;-66
2022/07/23 01:24:38;;;;;;;7.18;5.20;;;21.10;99.90;;;;;;5094440;28;20036;-66
2022/07/23 01:27:05;;;;;;;8.18;4.97;;;21.00;99.90;;;;;;5115410;28;20054;-66
2022/07/23 01:29:31;;;;;;;6.10;4.75;;;21.10;99.90;;;;;;5115354;28;20034;-66
2022/07/23 01:31:56;;;;;;;8.40;4.57;;;21.00;99.90;;;;;;5115279;28;20048;-66
2022/07/23 01:34:22;;;;;;;7.82;4.93;;;21.00;99.90;;;;;;5096220;28;20031;-66
2022/07/23 01:36:48;;;;;;;8.73;5.15;;;21.00;99.90;;;;;;5114022;28;20039;-66
2022/07/23 01:39:14;;;;;;;7.35;5.50;;;21.00;99.90;;;;;;5113634;28;20665;-66
2022/07/23 01:41:40;;;;;;;11.70;5.30;;;21.00;99.90;;;;;;5114308;28;20027;-66
2022/07/23 01:44:06;;;;;;;7.35;5.03;;;21.00;99.90;;;;;;5114514;28;20055;-66
2022/07/23 01:46:32;;;;;;;7.20;4.78;;;20.90;99.90;;;;;;5114059;28;20051;-66
2022/07/23 01:48:58;;;;;;;9.95;5.40;;;20.90;99.90;;;;;;5114702;28;20043;-66
2022/07/23 01:51:23;;;;;;;9.02;5.35;;;21.00;99.90;;;;;;5114863;28;20503;-66
2022/07/23 01:53:49;;;;;;;7.60;5.35;;;20.90;99.90;;;;;;5114733;28;20395;-66
2022/07/23 01:56:15;;;;;;;8.57;5.10;;;21.00;99.90;;;;;;5114859;28;20036;-66
2022/07/23 01:58:41;;;;;;;7.57;4.68;;;21.10;99.90;;;;;;5114710;28;20095;-66
2022/07/23 02:01:06;;;;;;;9.38;5.47;;;21.00;99.90;;;;;;5114672;28;20047;-66
2022/07/23 02:03:32;;;;;;;7.80;5.35;;;21.00;99.90;;;;;;5114550;28;20077;-66
2022/07/23 02:05:58;;;;;;;9.75;6.30;;;21.10;99.90;;;;;;5096211;28;20039;-66
2022/07/23 02:08:24;;;;;;;8.52;5.15;;;21.00;99.90;;;;;;5114514;28;20039;-66
2022/07/23 02:10:51;;;;;;;6.57;5.38;;;21.00;99.90;;;;;;5114144;28;20038;-66
2022/07/23 02:13:17;;;;;;;12.30;5.80;;;21.10;99.90;;;;;;5114397;28;20043;-66
2022/07/23 02:15:43;;;;;;;8.13;5.13;;;21.10;99.90;;;;;;5114473;28;20047;-67
2022/07/23 02:18:08;;;;;;;8.57;4.78;;;21.10;99.90;;;;;;5114449;28;20034;-66
2022/07/23 02:20:34;;;;;;;6.68;5.47;;;21.10;99.90;;;;;;5114345;28;20036;-66
2022/07/23 02:23:00;;;;;;;7.22;5.60;;;21.10;99.90;;;;;;5114112;28;20042;-66
2022/07/23 02:25:26;;;;;;;9.73;5.32;;;21.10;99.90;;;;;;5114126;28;20899;-66
2022/07/23 02:27:52;;;;;;;10.00;5.68;;;21.00;99.90;;;;;;5114254;28;20127;-66
2022/07/23 02:30:17;;;;;;;7.95;5.15;;;21.10;99.90;;;;;;5114239;28;20062;-66
2022/07/23 02:32:43;;;;;;;9.32;5.78;;;21.10;99.90;;;;;;5113974;28;20039;-66
2022/07/23 02:35:09;;;;;;;7.03;5.15;;;21.10;99.90;;;;;;5113498;28;20064;-66
2022/07/23 02:37:35;;;;;;;13.43;6.05;;;21.10;99.90;;;;;;5113969;28;20518;-66
2022/07/23 02:40:00;;;;;;;10.55;5.60;;;21.00;99.90;;;;;;5113946;28;20096;-67
2022/07/23 02:42:26;;;;;;;8.20;5.75;;;20.90;99.90;;;;;;5114039;28;20442;-66
2022/07/23 02:44:52;;;;;;;8.77;6.10;;;21.00;99.90;;;;;;5095751;28;20043;-66
2022/07/23 02:47:18;;;;;;;8.73;5.60;;;20.90;99.90;;;;;;5113633;28;20043;-66
2022/07/23 02:49:44;;;;;;;8.93;5.07;;;20.90;99.90;;;;;;5113644;28;20058;-66
2022/07/23 02:52:12;;;;;;;10.48;5.78;;;21.00;99.90;;;;;;5113846;28;20051;-66
2022/07/23 02:54:38;;;;;;;11.25;6.53;;;21.10;99.90;;;;;;5113917;28;20490;-66
2022/07/23 02:57:04;;;;;;;10.85;7.13;;;21.10;99.90;;;;;;5113781;28;20046;-66
2022/07/23 02:59:30;;;;;;;12.27;6.68;;;21.10;99.90;;;;;;5113687;28;20506;-66
2022/07/23 03:01:56;;;;;;;9.23;6.50;;;21.10;99.90;;;;;;5113764;28;20076;-66
2022/07/23 03:04:22;;;;;;;8.50;5.75;;;21.10;99.90;;;;;;5113587;28;20046;-66
2022/07/23 03:06:48;;;;;;;9.52;6.38;;;21.10;99.90;;;;;;5113637;28;20390;-66
2022/07/23 03:09:13;;;;;;;10.52;6.15;;;21.10;99.90;;;;;;5113716;28;20506;-66
2022/07/23 03:11:39;;;;;;;9.43;6.40;;;21.00;99.90;;;;;;5113686;28;20490;-66
2022/07/23 03:14:06;;;;;;;11.15;6.38;;;21.00;99.90;;;;;;5113574;28;20510;-66
2022/07/23 03:16:32;;;;;;;8.48;5.95;;;21.00;99.90;;;;;;5111891;28;20048;-66
2022/07/23 03:18:57;;;;;;;8.55;5.72;;;21.10;99.90;;;;;;5112744;28;20035;-66
2022/07/23 03:21:23;;;;;;;8.55;6.38;;;21.00;99.90;;;;;;5113528;28;20052;-66
2022/07/23 03:23:49;;;;;;;8.90;6.15;;;21.00;99.90;;;;;;5115906;28;20042;-66
2022/07/23 03:26:15;;;;;;;9.68;5.22;;;;;;;;;;5114637;28;20040;-66
2022/07/23 03:28:41;;;;;;;8.77;6.45;;;20.80;99.90;;;;;;5112117;28;20050;-66
2022/07/23 03:31:06;;;;;;;11.10;6.25;;;20.70;99.90;;;;;;5116506;28;20410;-66
2022/07/23 03:33:32;;;;;;;9.93;6.25;;;20.80;99.90;;;;;;5111927;28;20065;-66
2022/07/23 03:35:58;;;;;;;8.77;6.30;;;20.60;99.90;;;;;;5112969;28;20047;-66
2022/07/23 03:38:24;;;;;;;11.57;6.43;;;20.70;99.90;;;;;;5113223;28;20039;-66
2022/07/23 03:40:50;;;;;;;7.97;5.82;;;20.70;99.90;;;;;;5113150;28;20047;-66
2022/07/23 03:43:15;;;;;;;9.07;5.97;;;20.70;99.90;;;;;;5110450;28;20114;-66
2022/07/23 03:45:41;;;;;;;10.00;5.65;;;20.70;99.90;;;;;;5113840;28;20035;-66
2022/07/23 03:48:07;;;;;;;7.18;5.50;;;20.80;99.90;;;;;;5116677;28;20096;-66
2022/07/23 03:50:34;;;;;;;8.85;6.10;;;20.90;99.90;;;;;;5115282;28;20063;-67
2022/07/23 03:53:00;;;;;;;12.80;5.63;;;20.90;99.90;;;;;;5086546;28;20101;-68
2022/07/23 03:55:26;;;;;;;8.00;6.05;;;20.80;99.90;;;;;;5110246;28;20047;-68
2022/07/23 03:57:51;;;;;;;8.63;5.97;;;20.80;99.90;;;;;;5094232;28;20135;-68
2022/07/23 04:00:17;;;;;;;8.40;5.53;;;20.70;99.90;;;;;;5094694;28;20036;-68
2022/07/23 04:02:43;;;;;;;9.02;5.90;;;20.80;99.90;;;;;;5094704;28;20051;-68
2022/07/23 04:05:09;;;;;;;8.90;6.00;;;20.90;99.90;;;;;;5078473;28;20535;-68
2022/07/23 04:07:35;;;;;;;6.70;5.20;;;21.10;99.90;;;;;;5115016;28;20561;-68
2022/07/23 04:10:01;;;;;;;10.13;5.38;;;21.10;99.90;;;;;;5115051;28;20511;-69
2022/07/23 04:12:26;;;;;;;7.75;5.90;;;21.00;99.90;;;;;;5115757;28;20051;-68
2022/07/23 04:14:52;;;;;;;9.38;5.75;;;21.00;99.90;;;;;;5116720;28;20048;-68
2022/07/23 04:17:18;;;;;;;8.02;5.28;;;21.00;99.90;;;;;;5116651;28;20443;-68
2022/07/23 04:19:44;;;;;;;8.27;5.70;;;21.00;99.90;;;;;;5116721;28;20482;-68
2022/07/23 04:22:10;;;;;;;6.35;4.65;;;21.00;99.90;;;;;;5116712;28;20046;-68
2022/07/23 04:24:37;;;;;;;8.63;5.13;;;20.90;99.90;;;;;;5116725;28;20043;-68
2022/07/23 04:27:03;;;;;;;7.32;5.13;;;21.00;99.90;;;;;;5116218;28;20418;-68
2022/07/23 04:29:29;;;;;;;8.50;4.50;;;21.10;99.90;;;;;;5116210;28;20069;-68
2022/07/23 04:31:55;;;;;;;10.48;5.15;;;21.00;99.90;;;;;;5115913;28;20067;-68
2022/07/23 04:34:21;;;;;;;6.93;5.05;;;21.10;99.90;;;;;;5116413;28;20583;-68
2022/07/23 04:36:47;;;;;;;7.95;5.15;;;21.00;99.90;;;;;;5116534;28;20405;-68
2022/07/23 04:39:13;;;;;;;8.98;5.05;;;20.90;99.90;;;;;;5116405;28;20035;-69
2022/07/23 04:41:39;;;;;;;7.18;4.50;;;20.90;99.90;;;;;;5097960;28;20039;-68
2022/07/23 04:44:05;;;;;;;8.02;5.13;;;20.90;99.90;;;;;;5116208;28;20063;-68
2022/07/23 04:46:30;;;;;;;9.52;4.88;;;20.80;99.90;;;;;;5116022;28;20043;-68
2022/07/23 04:48:56;;;;;;;8.98;4.68;;;20.70;99.90;;;;;;5116295;28;20502;-68
2022/07/23 04:51:22;;;;;;;7.22;4.80;;;20.70;99.90;;;;;;5116007;28;20084;-68
2022/07/23 04:53:48;;;;;;;6.30;4.60;;;20.70;99.90;;;;;;5115964;28;20032;-68
2022/07/23 04:56:14;;;;;;;5.78;4.65;;;20.90;99.90;;;;;;5096640;28;20046;-68
2022/07/23 04:58:40;;;;;;;6.00;4.20;;;20.90;99.90;;;;;;5115617;28;20070;-68
2022/07/23 05:01:05;;;;;;;7.43;4.00;;;20.90;99.90;;;;;;5115789;28;20058;-68
2022/07/23 05:03:31;;;;;;;7.07;4.38;;;20.90;99.90;;;;;;5115898;28;20086;-68
2022/07/23 05:05:57;;;;;;;7.13;4.70;;;21.00;99.90;;;;;;5097253;28;20036;-68
2022/07/23 05:08:23;;;;;;;6.78;4.45;;;20.90;99.90;;;;;;5115317;28;20375;-68
2022/07/23 05:10:48;;;;;;;6.82;4.53;;;20.90;99.90;;;;;;5115440;28;20023;-68
2022/07/23 05:13:16;;;;;;;8.15;4.97;;;20.90;99.90;;;;;;5115672;28;20046;-68
2022/07/23 05:15:42;;;;;;;7.10;4.43;;;20.90;99.90;;;;;;5115421;28;20088;-68
2022/07/23 05:18:08;;;;;;;8.25;4.88;;;20.80;99.90;;;;;;5115560;28;20039;-68
2022/07/23 05:20:34;;;;;;;6.47;4.38;;;20.70;99.90;;;;;;5115485;28;20414;-68
2022/07/23 05:22:59;;;;;;;7.60;4.47;;;20.80;99.90;;;;;;5115447;28;20395;-69
2022/07/23 05:25:25;;;;;;;7.00;4.50;;;20.80;99.90;;;;;;5115151;28;20039;-68
2022/07/23 05:27:51;;;;;;;10.20;5.50;;;20.80;99.90;;;;;;5115114;28;20040;-68
2022/07/23 05:30:17;;;;;;;8.95;5.20;;;20.80;99.90;;;;;;5114979;28;20035;-68
2022/07/23 05:32:43;;;;;;;5.35;3.80;;;20.80;99.90;;;;;;5115256;28;20127;-68
2022/07/23 05:35:08;;;;;;;6.90;5.45;;;20.80;99.90;;;;;;5115176;28;20040;-68
2022/07/23 05:37:34;;;;;;;6.97;4.80;;;20.90;99.90;;;;;;5114786;28;20043;-68
2022/07/23 05:40:07;;;;;;;6.95;4.35;;;20.80;99.90;;;;;;5114927;28;20036;-68
2022/07/23 05:42:33;;;;;;;11.48;4.63;;;20.80;99.90;;;;;;5114932;28;20138;-68
2022/07/23 05:44:59;;;;;;;7.50;5.13;;;20.80;99.90;;;;;;5115089;28;20130;-68
2022/07/23 05:47:25;;;;;;;8.13;4.65;;;20.80;99.90;;;;;;5114896;28;20135;-68
2022/07/23 05:49:50;;;;;;;8.90;5.32;;;20.80;99.90;;;;;;5115013;28;20031;-68
2022/07/23 05:52:16;;;;;;;7.03;4.75;;;20.90;99.90;;;;;;5114798;28;20402;-69
2022/07/23 05:54:42;;;;;;;5.40;4.28;;;20.90;99.90;;;;;;5114795;28;20172;-68
2022/07/23 05:57:08;;;;;;;7.43;4.60;;;20.90;99.90;;;;;;5114362;28;20114;-68
2022/07/23 05:59:34;;;;;;;10.30;5.43;;;21.00;99.90;;;;;;5114302;28;20054;-69
2022/07/23 06:01:59;;;;;;;9.18;4.93;;;21.00;99.90;;;;;;5114761;28;20495;-68
2022/07/23 06:04:25;;;;;;;7.03;5.15;;;21.00;99.90;;;;;;5114746;28;20040;-68
2022/07/23 06:06:51;;;;;;;8.15;5.10;;;21.00;99.90;;;;;;5114440;28;20139;-68
2022/07/23 06:09:17;;;;;;;6.13;4.65;;;20.90;99.90;;;;;;5114516;28;20496;-68
2022/07/23 06:11:44;;;;;;;8.40;4.82;;;21.00;99.90;;;;;;5114541;28;20044;-68
2022/07/23 06:14:09;;;;;;;8.10;4.78;;;20.90;99.90;;;;;;5096106;28;20039;-68
2022/07/23 06:16:35;;;;;;;8.80;5.53;;;21.00;99.90;;;;;;5114328;28;20115;-68
2022/07/23 06:19:01;;;;;;;10.75;5.55;;;21.10;99.90;;;;;;5114410;28;20035;-68
2022/07/23 06:21:26;;;;;;;11.20;5.22;;;21.10;99.90;;;;;;5114217;28;20050;-68
2022/07/23 06:23:52;;;;;;;7.63;4.97;;;21.10;99.90;;;;;;5095740;28;20070;-68
2022/07/23 06:26:18;;;;;;;9.10;5.05;;;21.00;99.90;;;;;;5114167;28;20031;-69
2022/07/23 06:28:44;;;;;;;8.07;5.00;;;21.00;99.90;;;;;;5114294;28;20231;-69
2022/07/23 06:31:09;;;;;;;10.57;5.32;;;21.00;99.90;;;;;;5095927;28;20402;-68
2022/07/23 06:33:35;;;;;;;8.75;5.22;;;21.00;99.90;;;;;;5095859;28;20062;-68
2022/07/23 06:36:01;;;;;;;7.30;5.13;;;21.00;99.90;;;;;;5114010;28;20502;-69
2022/07/23 06:38:26;;;;;;;9.55;5.03;;;21.00;99.90;;;;;;5113949;28;20035;-68
2022/07/23 06:40:52;;;;;;;10.60;5.70;;;21.00;99.90;;;;;;5113930;28;20047;-69
2022/07/23 06:43:18;;;;;;;8.52;5.22;;;21.00;99.90;;;;;;5113640;28;20034;-68
2022/07/23 06:45:44;;;;;;;7.50;4.97;;;20.90;99.90;;;;;;5095546;28;20027;-68
2022/07/23 06:48:09;;;;;;;7.20;5.60;;;20.90;99.90;;;;;;5113976;28;20050;-68
2022/07/23 06:50:35;;;;;;;8.85;5.20;;;21.00;99.90;;;;;;5113834;28;20405;-69
2022/07/23 06:53:01;;;;;;;8.88;5.82;;;20.90;99.90;;;;;;5113790;28;20476;-68
2022/07/23 06:55:27;;;;;;;8.50;5.15;;;20.90;99.90;;;;;;5095373;28;20448;-68
2022/07/23 06:57:52;;;;;;;7.63;5.50;;;20.90;99.90;;;;;;5113649;28;20415;-69
2022/07/23 07:00:18;;;;;;;10.10;4.93;;;20.90;99.90;;;;;;5113550;28;20078;-68
2022/07/23 07:02:44;;;;;;;6.07;4.72;;;21.00;99.90;;;;;;5113431;28;20060;-68
2022/07/23 07:05:10;;;;;;;7.13;4.88;;;21.10;99.90;;;;;;5113456;28;20031;-68
2022/07/23 07:07:36;;;;;;;10.88;5.10;;;20.90;99.90;;;;;;5113398;28;20047;-69
2022/07/23 07:10:03;;;;;;;9.23;5.80;;;20.90;99.90;;;;;;5113536;28;20038;-68
2022/07/23 07:12:29;;;;;;;8.02;4.72;;;21.00;99.90;;;;;;5113660;28;20050;-69
2022/07/23 07:14:54;;;;;;;7.78;5.07;;;21.20;99.90;;;;;;5095263;28;20110;-68
2022/07/23 07:17:20;;;;;;;7.43;4.93;;;21.30;99.90;;;;;;5113220;28;20050;-68
2022/07/23 07:19:46;;;;;;;8.48;5.00;;;21.40;99.90;;;;;;5112727;28;20043;-68
2022/07/23 07:22:12;;;;;;;6.95;5.30;;;21.50;99.90;;;;;;5113091;28;20036;-69
2022/07/23 07:24:37;;;;;;;11.35;5.15;;;21.50;99.90;;;;;;5113115;28;20051;-68
2022/07/23 07:27:03;;;;;;;7.88;4.88;;;21.50;99.90;;;;;;5094941;28;20059;-68
2022/07/23 07:29:29;;;;;;;7.78;5.30;;;21.60;99.90;;;;;;5113379;28;20036;-68
2022/07/23 07:31:55;;;;;;;5.97;4.47;;;21.60;99.90;;;;;;5095096;28;20117;-68
2022/07/23 07:34:20;;;;;;;7.47;5.13;;;21.70;99.90;;;;;;5113163;28;20070;-67
2022/07/23 07:36:46;;;;;;;6.93;4.53;;;21.90;99.90;;;;;;5112949;28;20043;-68
2022/07/23 07:39:12;;;;;;;8.77;5.60;;;22.10;99.90;;;;;;5088059;28;20032;-68
2022/07/23 07:41:38;;;;;;;6.30;4.88;;;22.20;99.90;;;;;;5101248;28;20036;-68
2022/07/23 07:44:03;;;;;;;7.53;4.93;;;22.20;99.90;;;;;;5092897;28;20040;-68
2022/07/23 07:46:30;;;;;;;10.80;5.47;;;22.30;99.90;;;;;;5092699;28;20127;-68
2022/07/23 07:48:56;;;;;;;8.00;5.07;;;22.40;99.90;;;;;;5095302;28;20043;-68
2022/07/23 07:51:21;;;;;;;11.40;5.85;;;22.60;99.90;;;;;;5118056;28;20032;-67
2022/07/23 07:53:47;;;;;;;6.63;5.10;;;22.70;99.90;;;;;;5105529;28;20071;-67
2022/07/23 07:56:13;;;;;;;7.20;5.05;;;23.00;99.90;;;;;;5100152;28;20079;-69
2022/07/23 07:58:39;;;;;;;7.05;4.80;;;23.10;99.90;;;;;;5091222;28;20403;-69
2022/07/23 08:01:05;;;;;;;7.57;4.80;;;23.00;99.90;;;;;;5074447;28;20036;-70
2022/07/23 08:03:30;;;;;;;7.65;5.50;;;23.30;99.90;;;;;;5092169;28;20048;-70
2022/07/23 08:05:56;;;;;;;10.15;5.25;;;23.20;99.90;;;;;;5090464;28;20043;-69
2022/07/23 08:08:22;;;;;;;10.35;5.22;;;;;;;;;;5090550;28;20044;-67
2022/07/23 08:10:48;;;;;;;11.90;5.30;;;23.80;99.90;;;;;;5090424;28;20071;-68
2022/07/23 08:13:15;;;;;;;7.07;5.22;;;24.10;99.90;;;;;;5090782;28;20503;-68
2022/07/23 08:15:41;;;;;;;8.07;5.70;;;23.90;99.90;;;;;;5092358;28;20529;-68
2022/07/23 08:18:07;;;;;;;8.52;5.57;;;23.90;99.90;;;;;;5092457;28;20032;-69
2022/07/23 08:20:33;;;;;;;8.13;5.78;;;23.60;99.90;;;;;;5092449;28;20410;-69
2022/07/23 08:23:04;;;;;;;8.27;5.35;;;24.30;99.90;;;;;;5072155;28;20040;-67
2022/07/23 08:25:31;;;;;;;9.43;5.60;;;24.20;99.90;;;;;;5090389;28;20051;-66
2022/07/23 08:27:59;;;;;;;10.00;5.22;;;24.90;99.90;;;;;;5089998;28;20074;-66
2022/07/23 08:30:25;;;;;;;7.88;5.38;;;25.40;99.90;;;;;;5104734;28;20045;-66
2022/07/23 08:32:55;;;;;;;8.55;4.93;;;25.20;99.90;;;;;;5104387;28;20036;-67
2022/07/23 08:35:31;;;;;;;;;;;24.80;99.90;;;;;;5115218;28;20077;-66
2022/07/23 08:37:58;;;;;;;9.80;5.18;;;24.70;99.90;;;;;;5113943;28;19943;-66
2022/07/23 08:40:27;;;;;;;7.20;4.97;;;24.50;99.90;;;;;;5114578;28;20039;-66
2022/07/23 08:42:53;;;;;;;9.70;6.10;;;24.60;99.90;;;;;;5114351;28;20035;-67
2022/07/23 08:45:21;;;;;;;9.18;5.00;;;24.70;99.90;;;;;;5113910;28;20126;-67
2022/07/23 08:47:51;;;;;;;9.85;5.22;;;24.30;99.90;;;;;;5114081;28;20536;-66
2022/07/23 08:50:17;;;;;;;5.82;4.90;;;24.60;99.90;;;;;;5115382;28;20394;-67
2022/07/23 08:52:43;;;;;;;8.27;4.95;;;24.80;99.90;;;;;;5113519;28;20043;-67
2022/07/23 08:55:09;;;;;;;7.25;4.50;;;24.30;99.90;;;;;;5113589;28;20043;-67
2022/07/23 08:57:35;;;;;;;7.38;4.60;;;24.30;99.90;;;;;;5109308;28;20238;-66
2022/07/23 09:00:01;;;;;;;8.80;5.00;;;24.00;99.90;;;;;;5093147;28;20075;-66
2022/07/23 09:02:27;;;;;;;7.57;4.57;;;24.30;99.90;;;;;;5093328;28;20036;-66
2022/07/23 09:04:53;;;;;;;6.03;4.35;;;24.40;99.90;;;;;;5093539;28;20044;-67
2022/07/23 09:07:19;;;;;;;7.13;3.97;;;24.90;99.90;;;;;;5093010;28;20094;-66
2022/07/23 09:09:44;;;;;;;6.70;4.30;;;24.90;99.90;;;;;;5093383;28;20081;-65
2022/07/23 09:12:10;;;;;;;8.30;4.70;;;24.20;99.90;;;;;;5092971;28;20096;-66
2022/07/23 09:14:44;;;;;;;10.00;4.63;;;24.60;99.90;;;;;;5094338;28;20039;-66
2022/07/23 09:17:15;;;;;;;5.57;3.92;;;25.00;99.90;;;;;;5094802;28;20101;-66
2022/07/23 09:19:43;;;;;;;5.93;4.30;;;25.70;99.90;;;;;;5092821;28;20036;-65
2022/07/23 09:22:26;;;;;;;6.53;4.15;;;25.20;99.90;;;;;;5093235;28;20044;-66
2022/07/23 09:25:13;;;;;;;8.63;4.70;;;25.30;99.90;;;;;;5094639;28;20437;-66
2022/07/23 09:28:02;;;;;;;11.60;4.43;;;25.50;99.90;;;;;;5094381;28;20087;-66
2022/07/23 09:30:30;;;;;;;5.55;4.30;;;25.50;99.90;;;;;;5101075;28;20410;-66
2022/07/23 09:33:15;;;;;;;8.52;4.13;;;25.90;99.90;;;;;;5113404;28;20043;-66
2022/07/23 09:35:51;;;;;;;5.57;4.18;;;25.80;99.90;;;;;;5114446;28;20039;-66
2022/07/23 09:38:18;;;;;;;5.53;3.78;;;26.40;99.90;;;;;;5114819;28;20126;-65
2022/07/23 09:40:45;;;;;;;6.50;3.85;;;25.70;99.90;;;;;;5113169;28;20035;-65
2022/07/23 09:43:27;;;;;;;6.45;3.85;;;25.70;99.90;;;;;;5111990;28;20047;-66
2022/07/23 09:45:52;;;;;;;5.93;3.55;;;25.60;99.90;;;;;;5112084;28;20074;-66
2022/07/23 09:48:19;;;;;;;8.45;4.03;;;25.20;99.90;;;;;;5112047;28;20067;-66
2022/07/23 09:50:45;;;;;;;5.15;3.75;;;25.20;99.90;;;;;;5112379;28;20506;-67
2022/07/23 09:53:25;;;;;;;5.13;3.72;;;25.30;99.90;;;;;;5113165;28;20095;-67
2022/07/23 09:55:52;;;;;;;5.63;4.00;;;25.30;99.90;;;;;;5112092;28;20070;-66
2022/07/23 09:58:21;;;;;;;6.88;4.28;;;25.90;99.90;;;;;;5112459;28;20047;-67
2022/07/23 10:00:49;;;;;;;5.10;3.90;;;26.10;99.90;;;;;;5113905;28;20406;-67
2022/07/23 10:03:17;;;;;;;5.05;3.47;;;26.20;99.90;;;;;;5112455;27;20083;-66
2022/07/23 10:05:44;;;;;;;6.13;4.25;;;26.70;99.90;;;;;;5112973;28;20126;-66
2022/07/23 10:08:12;;;;;;;6.32;3.85;;;27.20;99.90;;;;;;5111461;28;20043;-65
2022/07/23 10:10:40;;;;;;;4.80;3.33;;;27.30;99.90;;;;;;5114421;28;20055;-67
2022/07/23 10:15:50;;;;;;;6.15;3.92;;;26.60;99.90;;;;;;5114827;27;20035;-69
2022/07/23 10:18:17;;;;;;;7.45;3.92;;;26.60;99.90;;;;;;5116232;27;20070;-67
2022/07/23 10:20:43;;;;;;;7.05;3.78;;;26.60;99.90;;;;;;5131361;27;20117;-66
2022/07/23 10:23:30;;;;;;;5.25;3.83;;;26.10;99.70;;;;;;5115531;27;20063;-66
2022/07/23 10:26:11;;;;;;;7.95;3.80;;;25.70;99.70;;;;;;5134456;27;20034;-65
2022/07/23 10:28:46;;;;;;;;;;;25.60;99.90;;;;;;5128260;27;20035;-67
2022/07/23 10:31:40;;;;;;;5.53;4.03;;;25.70;99.90;;;;;;5109278;27;19915;-66
2022/07/23 10:34:49;;;;;;;6.00;3.67;;;26.30;99.70;;;;;;5133762;27;20046;-67
2022/07/23 10:37:28;;;;;;;4.53;3.80;;;26.20;99.10;;;;;;5069194;27;20126;-67
2022/07/23 10:40:14;;;;;;;5.37;4.33;;;26.80;99.90;;;;;;5133442;27;20118;-67
2022/07/23 10:42:41;;;;;;;5.30;3.60;;;27.00;98.70;;;;;;5131413;27;20639;-66
2022/07/23 10:45:29;;;;;;;9.30;3.95;;;26.70;99.70;;;;;;5121307;27;20046;-67
2022/07/23 10:47:55;;;;;;;6.50;3.92;;;27.40;98.40;;;;;;5127109;27;20051;-67
2022/07/23 10:50:34;;;;;;;6.95;3.88;;;26.90;99.60;;;;;;5132536;27;20034;-66
2022/07/23 10:53:15;;;;;;;7.07;3.45;;;26.40;98.20;;;;;;5121918;27;20028;-67
2022/07/23 10:55:44;;;;;;;6.53;3.95;;;26.60;98.00;;;;;;5112472;28;20103;-68
2022/07/23 10:58:10;;;;;;;4.63;3.58;;;26.40;99.00;;;;;;5110790;28;20514;-67
2022/07/23 11:00:37;;;;;;;7.72;4.22;;;26.40;98.70;;;;;;5076432;28;20058;-67
2022/07/23 11:03:24;;;;;;;7.45;3.60;;;26.50;98.10;;;;;;5111550;28;20074;-67
2022/07/23 11:05:50;;;;;;;5.50;3.50;;;26.50;98.60;;;;;;5111345;28;20134;-68
2022/07/23 11:08:19;;;;;;;5.35;3.88;;;26.30;97.90;;;;;;5110591;28;20473;-67
2022/07/23 11:10:56;;;;;;;7.28;3.75;;;26.50;98.10;;;;;;5093082;28;20051;-68
2022/07/23 11:13:21;;;;;;;5.00;3.40;;;26.90;98.70;;;;;;5110656;28;20415;-68
2022/07/23 11:16:05;;;;;;;4.70;3.72;;;26.90;97.60;;;;;;5111168;28;20035;-66
2022/07/23 11:18:43;;;;;;;9.75;3.78;;;27.30;96.50;;;;;;5111768;28;20075;-67
2022/07/23 11:21:26;;;;;;;10.75;3.70;;;26.50;98.40;;;;;;5113320;28;20046;-66
2022/07/23 11:24:03;;;;;;;5.80;3.88;;;27.20;98.30;;;;;;5113146;28;20032;-68
2022/07/23 11:26:41;;;;;;;5.68;3.67;;;26.80;98.70;;;;;;5093734;28;20051;-67
2022/07/23 11:29:28;;;;;;;5.78;3.85;;;26.50;97.90;;;;;;5111090;28;20397;-68
2022/07/23 11:31:55;;;;;;;4.70;3.85;;;26.60;98.60;;;;;;5112363;28;20046;-68
2022/07/23 11:34:28;;;;;;;6.28;4.00;;;26.40;96.80;;;;;;5113061;28;20036;-68
2022/07/23 11:36:55;;;;;;;5.05;3.67;;;26.40;99.10;;;;;;5111019;28;20042;-67
2022/07/23 11:39:24;;;;;;;5.93;4.10;;;26.70;97.60;;;;;;5111078;28;20038;-67
2022/07/23 11:41:55;;;;;;;10.57;4.00;;;26.90;97.30;;;;;;5110950;28;20044;-68
2022/07/23 11:44:29;;;;;;;6.85;3.85;;;26.70;96.50;;;;;;5092776;28;20036;-68
2022/07/23 11:47:00;;;;;;;5.72;3.88;;;26.80;97.80;;;;;;5108910;28;20434;-67
2022/07/23 11:49:26;;;;;;;4.35;3.30;;;26.80;96.40;;;;;;5107368;28;20035;-67
2022/07/23 11:52:15;;;;;;;6.68;4.20;;;26.50;97.20;;;;;;5112944;28;20048;-66
2022/07/23 11:54:48;;;;;;;7.40;4.43;;;26.50;96.40;;;;;;5083121;28;20395;-67
2022/07/23 11:57:15;;;;;;;7.22;3.78;;;26.40;96.40;;;;;;5102323;28;20048;-67
2022/07/23 11:59:45;;;;;;;5.93;3.85;;;25.90;96.40;;;;;;5099495;28;20044;-66
2022/07/23 12:02:11;;;;;;;6.97;4.32;;;26.40;97.60;;;;;;5102995;28;20046;-66
2022/07/23 12:04:45;;;;;;;5.97;4.20;;;26.20;97.20;;;;;;5112181;28;20122;-65
2022/07/23 12:07:32;;;;;;;6.97;3.72;;;26.80;97.30;;;;;;5114837;28;20047;-67
2022/07/23 12:10:03;;;;;;;10.27;3.88;;;26.60;96.80;;;;;;5114305;28;20122;-67
2022/07/23 12:12:35;;;;;;;;;;;27.00;96.40;;;;;;5114592;28;20054;-67
2022/07/23 12:15:01;;;;;;;8.18;3.95;;;27.10;95.90;;;;;;5113580;28;19919;-66
2022/07/23 12:17:36;;;;;;;9.60;3.97;;;27.00;95.40;;;;;;5113238;28;20032;-67
2022/07/23 12:20:05;;;;;;;10.70;4.55;;;27.30;95.90;;;;;;5113403;28;20036;-66
2022/07/23 12:22:42;;;;;;;7.33;4.47;;;27.60;96.00;;;;;;5113993;28;20063;-65
2022/07/23 12:25:12;;;;;;;4.30;3.83;;;27.50;94.90;;;;;;5114253;28;20039;-66
2022/07/23 12:27:38;;;;;;;11.93;4.15;;;27.20;96.10;;;;;;5114045;28;20047;-66
2022/07/23 12:30:23;;;;;;;5.43;3.80;;;27.50;95.00;;;;;;5095645;28;20380;-65
2022/07/23 12:32:52;;;;;;;5.25;3.95;;;27.70;96.00;;;;;;5113930;28;20035;-66
2022/07/23 12:35:19;;;;;;;6.65;4.13;;;27.20;94.40;;;;;;5113308;28;20560;-66
2022/07/23 12:37:47;;;;;;;9.30;4.43;;;26.70;95.30;;;;;;5113959;28;20402;-67
2022/07/23 12:40:28;;;;;;;5.68;3.70;;;27.10;95.30;;;;;;5115455;28;20044;-67
2022/07/23 12:42:59;;;;;;;5.40;4.15;;;27.40;94.70;;;;;;5102782;28;20036;-66
2022/07/23 12:45:27;;;;;;;6.95;4.07;;;26.90;94.80;;;;;;5114057;28;20051;-67
2022/07/23 12:48:05;;;;;;;4.93;3.78;;;26.40;95.50;;;;;;5113818;28;20545;-66
2022/07/23 12:50:58;;;;;;;7.13;4.03;;;26.50;95.60;;;;;;5113070;28;20075;-67
2022/07/23 12:53:25;;;;;;;5.80;4.00;;;26.50;95.40;;;;;;5113325;28;20036;-67
2022/07/23 12:55:59;;;;;;;5.65;4.15;;;27.10;95.90;;;;;;5112248;28;20031;-66